Time;durP1;ratioP1;P1;durP2;ratioP2;P2;SDS_P1;SDS_P2;PMS_P1;PMS_P2;Temp;Humidity;BMP_temperature;BMP_pressure;BME280_temperature;BME280_humidity;BME280_pressure;Samples;Min_cycle;Max_cycle;Signal;HPM_P1;HPM_P2
2021/01/19 00:00:33;;;;;;;;;;;;;;;20.90;45.80;101062.41;2061910;28;4280;-69
2021/01/19 00:01:33;;;;;;;;;;;;;;;20.88;45.59;101064.75;2060618;28;3905;-69
2021/01/19 00:02:33;;;;;;;;;;;;;;;20.85;45.57;101068.28;2061832;28;3796;-69
2021/01/19 00:03:33;;;;;;;;;;;;;;;20.80;45.71;101059.97;2061732;28;3980;-71
2021/01/19 00:04:33;;;;;;;;;;;;;;;20.85;45.70;101065.44;2061666;28;4408;-68
2021/01/19 00:05:33;;;;;;;;;;;;;;;20.84;45.46;101062.94;2061816;28;3795;-72
2021/01/19 00:06:33;;;;;;;;;;;;;;;20.83;45.36;101062.09;2063204;28;3916;-72
2021/01/19 00:07:33;;;;;;;;;;;;;;;20.83;45.48;101064.13;2061807;28;4035;-69
2021/01/19 00:08:33;;;;;;;;;;;;;;;20.81;45.42;101061.59;2062914;28;4039;-70
2021/01/19 00:09:34;;;;;;;;;;;;;;;20.81;45.43;101066.47;2061499;28;3962;-69
2021/01/19 00:10:34;;;;;;;;;;;;;;;20.80;45.58;101064.81;2060343;28;4976;-68
2021/01/19 00:11:34;;;;;;;;;;;;;;;20.79;45.53;101068.84;2060823;28;3882;-68
2021/01/19 00:12:34;;;;;;;;;;;;;;;20.78;45.34;101062.31;2062793;28;3826;-68
2021/01/19 00:13:34;;;;;;;;;;;;;;;20.79;45.22;101058.31;2061436;28;3959;-69
2021/01/19 00:14:34;;;;;;;;;;;;;;;20.79;45.37;101066.84;2060966;28;3978;-69
2021/01/19 00:15:34;;;;;;;;;;;;;;;20.80;45.39;101062.81;2061545;28;3798;-69
2021/01/19 00:16:34;;;;;;;;;;;;;;;20.80;45.41;101048.59;2062536;28;3974;-69
2021/01/19 00:17:34;;;;;;;;;;;;;;;20.79;45.34;101044.09;2061901;28;3965;-69
2021/01/19 00:18:34;;;;;;;;;;;;;;;20.78;45.45;101042.41;2060798;28;4173;-68
2021/01/19 00:19:34;;;;;;;;;;;;;;;20.76;45.41;101053.31;2060850;28;4004;-69
2021/01/19 00:20:34;;;;;;;;;;;;;;;20.76;45.37;101043.94;2061469;28;3915;-68
2021/01/19 00:21:35;;;;;;;;;;;;;;;20.75;45.40;101045.13;2060985;28;4149;-68
2021/01/19 00:22:35;;;;;;;;;;;;;;;20.75;45.42;101051.63;2060252;28;3983;-68
2021/01/19 00:23:35;;;;;;;;;;;;;;;20.77;45.36;101045.59;2061121;28;4396;-68
2021/01/19 00:24:35;;;;;;;;;;;;;;;20.75;45.42;101050.81;2061854;28;3906;-69
2021/01/19 00:25:35;;;;;;;;;;;;;;;20.76;45.31;101043.94;2060782;28;4052;-69
2021/01/19 00:26:37;;;;;;;;;;;;;;;20.74;45.49;101049.97;2060981;28;3981;-69
2021/01/19 00:27:37;;;;;;;;;;;;;;;20.74;45.38;101044.28;2062715;28;4845;-69
2021/01/19 00:28:37;;;;;;;;;;;;;;;20.74;45.57;101035.75;2061267;28;4163;-69
2021/01/19 00:29:37;;;;;;;;;;;;;;;20.76;45.50;101044.78;2061411;28;3849;-69
2021/01/19 00:30:37;;;;;;;;;;;;;;;20.76;45.46;101036.25;2061817;28;3937;-69
2021/01/19 00:31:37;;;;;;;;;;;;;;;20.77;45.36;101039.91;2061255;28;3916;-69
2021/01/19 00:32:37;;;;;;;;;;;;;;;20.75;45.38;101033.75;2061921;28;4018;-69
2021/01/19 00:33:37;;;;;;;;;;;;;;;20.78;45.31;101039.56;2061513;28;3886;-69
2021/01/19 00:34:37;;;;;;;;;;;;;;;20.78;45.30;101039.56;2061676;28;3821;-69
2021/01/19 00:35:40;;;;;;;;;;;;;;;20.79;45.27;101043.25;2061690;28;3816;-69
2021/01/19 00:36:40;;;;;;;;;;;;;;;20.76;45.36;101033.41;2061290;28;4049;-69
2021/01/19 00:37:40;;;;;;;;;;;;;;;20.79;45.13;101040.41;2061175;28;3948;-69
2021/01/19 00:38:40;;;;;;;;;;;;;;;20.79;45.19;101040.41;2061808;28;3840;-69
2021/01/19 00:39:40;;;;;;;;;;;;;;;20.79;45.32;101044.09;2061412;28;3870;-69
2021/01/19 00:40:40;;;;;;;;;;;;;;;20.78;45.16;101044.41;2062635;28;3883;-69
2021/01/19 00:41:40;;;;;;;;;;;;;;;20.78;45.16;101047.25;2061144;28;3895;-69
2021/01/19 00:42:40;;;;;;;;;;;;;;;20.78;45.24;101044.41;2060638;28;4285;-69
2021/01/19 00:43:41;;;;;;;;;;;;;;;20.79;45.10;101041.25;2061215;28;3963;-69
2021/01/19 00:44:41;;;;;;;;;;;;;;;20.78;45.27;101044.41;2061749;28;3823;-69
2021/01/19 00:45:41;;;;;;;;;;;;;;;20.77;45.33;101052.13;2055269;28;3907;-69
2021/01/19 00:46:41;;;;;;;;;;;;;;;20.77;45.25;101049.28;2055744;28;4918;-69
2021/01/19 00:47:41;;;;;;;;;;;;;;;20.77;45.38;101051.28;2061635;28;3944;-70
2021/01/19 00:48:41;;;;;;;;;;;;;;;20.75;45.40;101057.31;2062121;28;4103;-69
2021/01/19 00:49:41;;;;;;;;;;;;;;;20.76;45.41;101052.47;2061209;28;3826;-69
2021/01/19 00:50:41;;;;;;;;;;;;;;;20.77;45.38;101049.28;2062419;28;3957;-70
2021/01/19 00:51:41;;;;;;;;;;;;;;;20.75;45.56;101050.81;2062850;28;3826;-69
2021/01/19 00:52:41;;;;;;;;;;;;;;;20.74;45.66;101046.31;2060931;28;3832;-70
2021/01/19 00:53:42;;;;;;;;;;;;;;;20.73;45.62;101050.31;2061904;28;4000;-70
2021/01/19 00:54:43;;;;;;;;;;;;;;;20.77;45.42;101052.13;2061943;28;4076;-69
2021/01/19 00:55:43;;;;;;;;;;;;;;;20.74;45.60;101044.28;2061416;28;3840;-69
2021/01/19 00:56:43;;;;;;;;;;;;;;;20.74;45.53;101040.63;2061209;28;3931;-70
2021/01/19 00:57:43;;;;;;;;;;;;;;;20.73;45.51;101045.47;2061579;28;3797;-68
2021/01/19 00:58:43;;;;;;;;;;;;;;;20.77;45.43;101035.06;2061590;28;3987;-69
2021/01/19 00:59:43;;;;;;;;;;;;;;;20.80;45.33;101036.38;2061248;28;4095;-69
2021/01/19 01:00:43;;;;;;;;;;;;;;;20.79;45.45;101038.41;2060764;28;4101;-69
2021/01/19 01:01:43;;;;;;;;;;;;;;;20.79;45.30;101044.09;2062103;28;3845;-70
2021/01/19 01:02:43;;;;;;;;;;;;;;;20.77;45.54;101039.91;2060913;28;4227;-69
2021/01/19 01:03:44;;;;;;;;;;;;;;;20.80;45.47;101042.06;2062194;28;3865;-69
2021/01/19 01:04:44;;;;;;;;;;;;;;;20.80;45.36;101039.22;2052837;28;4091;-69
2021/01/19 01:05:44;;;;;;;;;;;;;;;20.78;45.40;101035.88;2052819;28;4028;-69
2021/01/19 01:06:44;;;;;;;;;;;;;;;20.77;45.33;101035.06;2061491;28;4310;-69
2021/01/19 01:07:44;;;;;;;;;;;;;;;20.81;45.44;101032.34;2061799;28;3803;-69
2021/01/19 01:08:44;;;;;;;;;;;;;;;20.82;45.32;101032.00;2060795;28;3834;-70
2021/01/19 01:09:44;;;;;;;;;;;;;;;20.83;45.40;101030.00;2061473;28;3824;-70
2021/01/19 01:10:44;;;;;;;;;;;;;;;20.82;45.41;101036.88;2062072;28;3969;-70
2021/01/19 01:11:44;;;;;;;;;;;;;;;20.81;45.37;101030.34;2061769;28;3827;-69
2021/01/19 01:12:44;;;;;;;;;;;;;;;20.82;45.25;101029.16;2060675;28;3985;-70
2021/01/19 01:13:45;;;;;;;;;;;;;;;20.81;45.23;101032.34;2061428;28;3814;-70
2021/01/19 01:14:45;;;;;;;;;;;;;;;20.80;45.29;101031.53;2060518;28;3787;-69
2021/01/19 01:15:45;;;;;;;;;;;;;;;20.82;45.18;101029.16;2061228;28;4450;-70
2021/01/19 01:16:45;;;;;;;;;;;;;;;20.83;45.49;101030.00;2061326;28;3821;-70
2021/01/19 01:17:45;;;;;;;;;;;;;;;20.83;45.63;101030.81;2060911;28;3985;-70
2021/01/19 01:18:45;;;;;;;;;;;;;;;20.79;45.53;101029.88;2060635;28;4342;-70
2021/01/19 01:19:45;;;;;;;;;;;;;;;20.78;45.54;101036.72;2061529;28;4431;-70
2021/01/19 01:20:45;;;;;;;;;;;;;;;20.75;45.72;101028.06;2062506;28;3816;-70
2021/01/19 01:21:45;;;;;;;;;;;;;;;20.74;45.60;101026.41;2060905;28;3815;-70
2021/01/19 01:22:45;;;;;;;;;;;;;;;20.74;45.70;101030.06;2060297;28;3851;-70
2021/01/19 01:23:45;;;;;;;;;;;;;;;20.76;45.41;101027.72;2061708;28;3895;-70
2021/01/19 01:24:45;;;;;;;;;;;;;;;20.75;45.64;101016.69;2061170;28;4289;-70
2021/01/19 01:25:46;;;;;;;;;;;;;;;20.78;45.54;101027.34;2061266;28;3871;-70
2021/01/19 01:26:46;;;;;;;;;;;;;;;20.76;45.57;101027.72;2061876;28;3844;-70
2021/01/19 01:27:46;;;;;;;;;;;;;;;20.75;45.76;101028.06;2060348;28;4291;-70
2021/01/19 01:28:46;;;;;;;;;;;;;;;20.77;45.41;101028.56;2061875;28;4484;-70
2021/01/19 01:29:46;;;;;;;;;;;;;;;20.76;45.67;101027.72;2061692;28;3860;-70
2021/01/19 01:30:46;;;;;;;;;;;;;;;20.78;45.53;101025.34;2062174;28;3964;-70
2021/01/19 01:31:46;;;;;;;;;;;;;;;20.76;45.48;101019.19;2060493;28;3957;-70
2021/01/19 01:32:50;;;;;;;;;;;;;;;20.77;45.47;101025.72;2060827;28;3982;-70
2021/01/19 01:33:50;;;;;;;;;;;;;;;20.75;45.53;101025.22;2061037;28;3972;-71
2021/01/19 01:34:50;;;;;;;;;;;;;;;20.76;45.54;101035.41;2061011;28;3834;-70
2021/01/19 01:35:51;;;;;;;;;;;;;;;20.76;45.51;101035.41;2060982;28;3847;-70
2021/01/19 01:36:51;;;;;;;;;;;;;;;20.79;45.59;101029.88;2061429;28;4266;-70
2021/01/19 01:37:51;;;;;;;;;;;;;;;20.77;45.49;101031.38;2061140;28;3925;-70
2021/01/19 01:38:51;;;;;;;;;;;;;;;20.77;45.54;101028.56;2061534;28;3796;-70
2021/01/19 01:39:51;;;;;;;;;;;;;;;20.80;45.35;101031.53;2061310;28;3834;-70
2021/01/19 01:40:51;;;;;;;;;;;;;;;20.80;45.29;101028.69;2061383;28;3962;-70
2021/01/19 01:41:51;;;;;;;;;;;;;;;20.78;45.51;101028.19;2060863;28;3957;-70
2021/01/19 01:42:51;;;;;;;;;;;;;;;20.79;45.45;101017.66;2060759;28;3994;-70
2021/01/19 01:43:52;;;;;;;;;;;;;;;20.78;45.36;101022.50;2060919;28;3801;-70
2021/01/19 01:44:52;;;;;;;;;;;;;;;20.76;45.41;101016.34;2061142;28;4308;-70
2021/01/19 01:45:52;;;;;;;;;;;;;;;20.76;45.30;101018.34;2061258;28;3945;-70
2021/01/19 01:46:52;;;;;;;;;;;;;;;20.76;45.38;101022.03;2061343;28;3981;-70
2021/01/19 01:47:52;;;;;;;;;;;;;;;20.76;45.34;101013.50;2060063;28;3860;-70
2021/01/19 01:48:52;;;;;;;;;;;;;;;20.77;45.52;101015.16;2061713;28;3806;-70
2021/01/19 01:49:53;;;;;;;;;;;;;;;20.77;45.48;101015.16;2061424;28;3880;-70
2021/01/19 01:50:53;;;;;;;;;;;;;;;20.76;45.59;101021.19;2059925;28;3873;-69
2021/01/19 01:51:53;;;;;;;;;;;;;;;20.77;45.57;101008.66;2063625;28;4306;-70
2021/01/19 01:52:53;;;;;;;;;;;;;;;20.73;45.41;101017.03;2060377;28;3809;-70
2021/01/19 01:53:53;;;;;;;;;;;;;;;20.74;45.59;101012.19;2060101;28;3863;-70
2021/01/19 01:54:53;;;;;;;;;;;;;;;20.74;45.54;101010.16;2061392;28;4033;-71
2021/01/19 01:55:53;;;;;;;;;;;;;;;20.73;45.63;101005.69;2060567;28;3829;-69
2021/01/19 01:56:53;;;;;;;;;;;;;;;20.76;45.45;101009.81;2060848;28;4428;-69
2021/01/19 01:57:55;;;;;;;;;;;;;;;20.75;45.55;101008.97;2061331;28;3897;-69
2021/01/19 01:58:55;;;;;;;;;;;;;;;20.75;45.42;101011.81;2061504;28;3884;-69
2021/01/19 01:59:55;;;;;;;;;;;;;;;20.77;45.47;101015.16;2061104;28;3810;-70
2021/01/19 02:00:55;;;;;;;;;;;;;;;20.80;45.53;101014.47;2061013;28;3806;-69
2021/01/19 02:01:55;;;;;;;;;;;;;;;20.84;45.57;101008.91;2061175;28;3994;-69
2021/01/19 02:02:56;;;;;;;;;;;;;;;20.85;45.48;101014.25;2061858;28;3845;-69
2021/01/19 02:03:56;;;;;;;;;;;;;;;20.87;45.37;101008.22;2061958;28;3880;-69
2021/01/19 02:04:56;;;;;;;;;;;;;;;20.85;45.47;101011.41;2062455;28;3821;-69
2021/01/19 02:05:56;;;;;;;;;;;;;;;20.85;45.27;101011.41;2063090;28;3973;-69
2021/01/19 02:06:56;;;;;;;;;;;;;;;20.83;45.22;101007.25;2062344;28;4243;-69
2021/01/19 02:07:56;;;;;;;;;;;;;;;20.82;45.21;101012.09;2062627;28;4073;-69
2021/01/19 02:08:56;;;;;;;;;;;;;;;20.83;45.53;101007.25;2062984;28;3815;-68
2021/01/19 02:09:56;;;;;;;;;;;;;;;20.86;45.42;101013.06;2062525;28;4288;-68
2021/01/19 02:10:56;;;;;;;;;;;;;;;20.84;45.26;101008.91;2062360;28;4394;-68
2021/01/19 02:11:56;;;;;;;;;;;;;;;20.86;45.30;101007.38;2062402;28;3814;-69
2021/01/19 02:12:57;;;;;;;;;;;;;;;20.86;45.16;101000.88;2062427;28;4022;-68
2021/01/19 02:13:57;;;;;;;;;;;;;;;20.83;45.25;101002.38;2061650;28;3831;-69
2021/01/19 02:14:57;;;;;;;;;;;;;;;20.85;45.35;101004.91;2062384;28;4284;-68
2021/01/19 02:15:57;;;;;;;;;;;;;;;20.86;45.43;101000.88;2062856;28;3833;-69
2021/01/19 02:16:57;;;;;;;;;;;;;;;20.83;45.38;101004.41;2062294;28;3794;-68
2021/01/19 02:17:57;;;;;;;;;;;;;;;20.83;45.38;100993.84;2064262;28;3787;-69
2021/01/19 02:18:57;;;;;;;;;;;;;;;20.80;45.34;101000.25;2062373;28;3931;-68
2021/01/19 02:19:57;;;;;;;;;;;;;;;20.81;45.39;100998.22;2063039;28;3886;-68
2021/01/19 02:20:58;;;;;;;;;;;;;;;20.79;45.45;101006.28;2062074;28;3998;-68
2021/01/19 02:21:58;;;;;;;;;;;;;;;20.79;45.44;101000.59;2056616;28;3849;-69
2021/01/19 02:22:58;;;;;;;;;;;;;;;20.77;45.49;101003.78;2057514;28;3800;-69
2021/01/19 02:23:58;;;;;;;;;;;;;;;20.76;45.43;101006.97;2062019;28;4971;-69
2021/01/19 02:24:58;;;;;;;;;;;;;;;20.74;45.36;101000.81;2062222;28;3885;-69
2021/01/19 02:25:58;;;;;;;;;;;;;;;20.76;45.70;101002.13;2061119;28;3985;-67
2021/01/19 02:26:58;;;;;;;;;;;;;;;20.78;45.66;101002.59;2060892;28;3816;-68
2021/01/19 02:27:58;;;;;;;;;;;;;;;20.77;45.59;101006.63;2060864;28;4066;-68
2021/01/19 02:28:58;;;;;;;;;;;;;;;20.79;45.49;100992.06;2060491;28;3797;-67
2021/01/19 02:29:58;;;;;;;;;;;;;;;20.83;45.42;100993.84;2060205;28;4142;-72
2021/01/19 02:30:58;;;;;;;;;;;;;;;21.00;45.13;101000.56;2061075;28;3829;-68
2021/01/19 02:31:59;;;;;;;;;;;;;;;21.05;45.45;101001.19;2063157;28;4570;-68
2021/01/19 02:32:59;;;;;;;;;;;;;;;21.02;45.54;100995.38;2062304;28;3820;-69
2021/01/19 02:33:59;;;;;;;;;;;;;;;20.99;45.79;100998.91;2061996;28;4014;-69
2021/01/19 02:34:59;;;;;;;;;;;;;;;20.98;45.67;100988.69;2061347;28;3830;-68
2021/01/19 02:35:59;;;;;;;;;;;;;;;20.94;45.98;100990.59;2062857;28;4301;-69
2021/01/19 02:36:59;;;;;;;;;;;;;;;20.94;45.91;100993.44;2061925;28;3837;-68
2021/01/19 02:37:59;;;;;;;;;;;;;;;20.91;45.97;100992.13;2062618;28;4239;-67
2021/01/19 02:38:59;;;;;;;;;;;;;;;20.88;46.12;100987.13;2062197;28;3865;-68
2021/01/19 02:39:59;;;;;;;;;;;;;;;20.84;46.12;100987.00;2062636;28;3935;-68
2021/01/19 02:40:59;;;;;;;;;;;;;;;20.82;46.23;100982.84;2063050;28;3809;-67
2021/01/19 02:42:00;;;;;;;;;;;;;;;20.81;46.27;100970.63;2061125;28;6754;-68
2021/01/19 02:43:00;;;;;;;;;;;;;;;20.89;46.14;100980.25;2053973;28;3832;-68
2021/01/19 02:44:00;;;;;;;;;;;;;;;20.85;46.15;100971.59;2052207;28;3824;-67
2021/01/19 02:45:00;;;;;;;;;;;;;;;20.85;46.22;100982.16;2061579;28;3884;-68
2021/01/19 02:46:00;;;;;;;;;;;;;;;20.82;46.06;100978.00;2062970;28;3977;-68
2021/01/19 02:47:00;;;;;;;;;;;;;;;20.78;46.17;100976.19;2061852;28;3833;-68
2021/01/19 02:48:00;;;;;;;;;;;;;;;20.79;46.24;100978.69;2062000;28;4232;-67
2021/01/19 02:49:01;;;;;;;;;;;;;;;20.79;46.30;100977.88;2062219;28;3958;-67
2021/01/19 02:50:01;;;;;;;;;;;;;;;20.79;46.30;100973.00;2063730;28;3804;-68
2021/01/19 02:51:01;;;;;;;;;;;;;;;20.83;46.29;100971.09;2062609;28;3956;-68
2021/01/19 02:52:01;;;;;;;;;;;;;;;20.81;46.37;100986.84;2060964;28;3813;-68
2021/01/19 02:53:01;;;;;;;;;;;;;;;20.79;46.21;100975.84;2062495;28;3899;-67
2021/01/19 02:54:01;;;;;;;;;;;;;;;20.80;46.44;100980.34;2061824;28;3814;-67
2021/01/19 02:55:01;;;;;;;;;;;;;;;20.78;46.38;100979.03;2062706;28;3801;-67
2021/01/19 02:56:01;;;;;;;;;;;;;;;20.79;46.29;100975.00;2062167;28;3826;-67
2021/01/19 02:57:01;;;;;;;;;;;;;;;20.82;47.83;100978.00;2061926;28;3857;-68
2021/01/19 02:58:01;;;;;;;;;;;;;;;20.79;46.34;100970.16;2062938;28;3842;-67
2021/01/19 02:59:02;;;;;;;;;;;;;;;20.77;46.47;100981.03;2062203;28;3955;-68
2021/01/19 03:00:02;;;;;;;;;;;;;;;20.76;46.29;100979.38;2062590;28;4411;-67
2021/01/19 03:01:02;;;;;;;;;;;;;;;20.74;46.56;100978.91;2061548;28;3800;-68
2021/01/19 03:02:02;;;;;;;;;;;;;;;20.74;46.54;100978.91;2062360;28;4038;-68
2021/01/19 03:03:02;;;;;;;;;;;;;;;20.72;46.58;100972.72;2062410;28;3904;-67
2021/01/19 03:04:02;;;;;;;;;;;;;;;20.73;46.47;100980.09;2054235;28;3818;-67
2021/01/19 03:05:02;;;;;;;;;;;;;;;20.75;46.50;100980.53;2053236;28;4743;-68
2021/01/19 03:06:02;;;;;;;;;;;;;;;20.73;46.33;100980.09;2062020;28;3824;-68
2021/01/19 03:07:03;;;;;;;;;;;;;;;20.75;46.29;100988.25;2062013;28;4141;-68
2021/01/19 03:08:03;;;;;;;;;;;;;;;20.76;46.41;100981.38;2062858;28;3889;-68
2021/01/19 03:09:03;;;;;;;;;;;;;;;20.75;46.32;100980.53;2061766;28;4418;-68
2021/01/19 03:10:03;;;;;;;;;;;;;;;20.74;46.47;100986.59;2062314;28;3889;-69
2021/01/19 03:11:03;;;;;;;;;;;;;;;20.72;46.57;100981.25;2063001;28;3930;-68
2021/01/19 03:12:03;;;;;;;;;;;;;;;20.74;46.40;100984.56;2061796;28;3963;-69
2021/01/19 03:13:03;;;;;;;;;;;;;;;20.73;46.30;100974.41;2061302;28;3786;-68
2021/01/19 03:14:03;;;;;;;;;;;;;;;20.75;46.44;100971.19;2062565;28;4025;-68
2021/01/19 03:15:03;;;;;;;;;;;;;;;20.73;46.41;100977.25;2061033;28;3997;-68
2021/01/19 03:16:03;;;;;;;;;;;;;;;20.74;46.27;100966.69;2061456;28;4110;-69
2021/01/19 03:17:04;;;;;;;;;;;;;;;20.71;46.29;100971.06;2062129;28;5006;-68
2021/01/19 03:18:04;;;;;;;;;;;;;;;20.74;46.39;100973.22;2062076;28;3963;-68
2021/01/19 03:19:04;;;;;;;;;;;;;;;20.76;46.34;100972.84;2062525;28;3801;-68
2021/01/19 03:20:04;;;;;;;;;;;;;;;20.75;46.42;100980.53;2062263;28;3804;-68
2021/01/19 03:21:04;;;;;;;;;;;;;;;20.81;46.18;100970.63;2062298;28;3806;-68
2021/01/19 03:22:04;;;;;;;;;;;;;;;20.81;46.29;100964.94;2062130;28;3915;-68
2021/01/19 03:23:04;;;;;;;;;;;;;;;20.82;46.35;100966.59;2052967;28;4051;-68
2021/01/19 03:24:04;;;;;;;;;;;;;;;20.80;46.43;100962.44;2053926;28;3993;-69
2021/01/19 03:25:05;;;;;;;;;;;;;;;20.78;46.53;100965.63;2061223;28;4070;-68
2021/01/19 03:26:05;;;;;;;;;;;;;;;20.79;46.34;100960.81;2053345;28;4236;-68
2021/01/19 03:27:05;;;;;;;;;;;;;;;20.78;46.54;100961.97;2053057;28;3812;-68
2021/01/19 03:28:05;;;;;;;;;;;;;;;20.75;46.53;100954.97;2061416;28;3969;-68
2021/01/19 03:29:05;;;;;;;;;;;;;;;20.73;46.56;100954.50;2062789;28;3771;-68
2021/01/19 03:30:05;;;;;;;;;;;;;;;20.72;46.46;100958.50;2062097;28;3862;-68
2021/01/19 03:31:05;;;;;;;;;;;;;;;20.74;46.54;100961.84;2063527;28;3878;-67
2021/01/19 03:32:05;;;;;;;;;;;;;;;20.74;46.53;100952.47;2061337;28;4299;-68
2021/01/19 03:33:05;;;;;;;;;;;;;;;20.75;46.49;100956.97;2061145;28;4026;-68
2021/01/19 03:34:05;;;;;;;;;;;;;;;20.75;46.43;100965.50;2061643;28;3959;-68
2021/01/19 03:35:05;;;;;;;;;;;;;;;20.75;46.45;100972.00;2061865;28;3971;-68
2021/01/19 03:36:05;;;;;;;;;;;;;;;20.74;46.54;100966.69;2061413;28;4408;-69
2021/01/19 03:37:05;;;;;;;;;;;;;;;20.73;46.38;100963.03;2062012;28;3850;-68
2021/01/19 03:38:06;;;;;;;;;;;;;;;20.73;46.56;100956.47;2062321;28;3811;-68
2021/01/19 03:39:06;;;;;;;;;;;;;;;20.72;46.49;100954.84;2063142;28;4115;-68
2021/01/19 03:40:06;;;;;;;;;;;;;;;20.71;46.53;100959.69;2062531;28;3994;-68
2021/01/19 03:41:06;;;;;;;;;;;;;;;20.69;46.65;100962.03;2061112;28;3950;-68
2021/01/19 03:42:06;;;;;;;;;;;;;;;20.69;46.70;100962.03;2062483;28;4063;-68
2021/01/19 03:43:06;;;;;;;;;;;;;;;20.66;46.74;100948.53;2061642;28;3816;-68
2021/01/19 03:44:06;;;;;;;;;;;;;;;20.68;46.69;100957.53;2062593;28;4060;-68
2021/01/19 03:45:07;;;;;;;;;;;;;;;20.71;46.57;100953.19;2062942;28;4123;-68
2021/01/19 03:46:07;;;;;;;;;;;;;;;20.70;46.49;100949.47;2061426;28;3991;-68
2021/01/19 03:47:07;;;;;;;;;;;;;;;20.71;46.77;100959.69;2061774;28;3840;-69
2021/01/19 03:48:07;;;;;;;;;;;;;;;20.70;46.62;100963.69;2061720;28;3960;-68
2021/01/19 03:49:07;;;;;;;;;;;;;;;20.72;46.54;100963.34;2061787;28;4012;-68
2021/01/19 03:50:07;;;;;;;;;;;;;;;20.73;46.61;100960.19;2062165;28;4183;-68
2021/01/19 03:51:07;;;;;;;;;;;;;;;20.75;46.65;100954.13;2061601;28;3935;-67
2021/01/19 03:52:07;;;;;;;;;;;;;;;20.74;46.63;100955.31;2061765;28;4286;-68
2021/01/19 03:53:07;;;;;;;;;;;;;;;20.75;46.44;100954.13;2060993;28;3963;-68
2021/01/19 03:54:07;;;;;;;;;;;;;;;20.77;46.49;100951.78;2062455;28;3800;-69
2021/01/19 03:55:07;;;;;;;;;;;;;;;20.79;46.43;100947.41;2061944;28;3874;-68
2021/01/19 03:56:07;;;;;;;;;;;;;;;20.77;46.51;100946.09;2061112;28;4062;-68
2021/01/19 03:57:08;;;;;;;;;;;;;;;20.77;46.48;100949.75;2062266;28;4305;-68
2021/01/19 03:58:08;;;;;;;;;;;;;;;20.77;46.66;100940.41;2052915;28;3801;-68
2021/01/19 03:59:08;;;;;;;;;;;;;;;20.79;46.54;100944.56;2052819;28;3784;-69
2021/01/19 04:00:08;;;;;;;;;;;;;;;20.79;46.47;100940.91;2062398;28;3809;-68
2021/01/19 04:01:08;;;;;;;;;;;;;;;20.78;46.51;100939.22;2061771;28;4406;-67
2021/01/19 04:02:08;;;;;;;;;;;;;;;20.79;46.59;100938.88;2061604;28;3829;-68
2021/01/19 04:03:08;;;;;;;;;;;;;;;20.80;46.62;100937.69;2062497;28;3838;-67
2021/01/19 04:04:08;;;;;;;;;;;;;;;20.81;46.48;100938.50;2062107;28;5023;-68
2021/01/19 04:05:08;;;;;;;;;;;;;;;20.82;46.52;100938.19;2061972;28;3800;-68
2021/01/19 04:06:08;;;;;;;;;;;;;;;20.84;46.59;100932.13;2060711;28;3913;-67
2021/01/19 04:07:08;;;;;;;;;;;;;;;20.84;46.47;100934.97;2061846;28;4372;-68
2021/01/19 04:08:09;;;;;;;;;;;;;;;20.84;46.47;100930.13;2062404;28;3825;-68
2021/01/19 04:09:09;;;;;;;;;;;;;;;20.84;46.47;100935.81;2060878;28;4000;-68
2021/01/19 04:10:09;;;;;;;;;;;;;;;20.86;46.61;100930.59;2062564;28;3780;-67
2021/01/19 04:11:09;;;;;;;;;;;;;;;20.86;46.45;100927.75;2062764;28;3776;-68
2021/01/19 04:12:09;;;;;;;;;;;;;;;20.87;46.50;100931.44;2061780;28;3856;-68
2021/01/19 04:13:09;;;;;;;;;;;;;;;20.84;46.54;100930.13;2061775;28;4131;-68
2021/01/19 04:14:09;;;;;;;;;;;;;;;20.89;46.54;100932.72;2061199;28;3757;-69
2021/01/19 04:15:09;;;;;;;;;;;;;;;20.95;46.52;100921.16;2063172;28;3948;-68
2021/01/19 04:16:09;;;;;;;;;;;;;;;20.99;46.42;100936.34;2060914;28;3997;-67
2021/01/19 04:17:09;;;;;;;;;;;;;;;20.95;46.56;100929.69;2062149;28;3790;-68
2021/01/19 04:18:10;;;;;;;;;;;;;;;20.91;46.72;100923.88;2061477;28;4445;-67
2021/01/19 04:19:10;;;;;;;;;;;;;;;20.90;46.80;100927.91;2059991;28;3959;-67
2021/01/19 04:20:10;;;;;;;;;;;;;;;20.88;46.63;100925.41;2061586;28;3998;-68
2021/01/19 04:21:10;;;;;;;;;;;;;;;20.86;46.79;100926.94;2062280;28;3981;-67
2021/01/19 04:22:10;;;;;;;;;;;;;;;20.83;47.03;100930.47;2061929;28;4204;-67
2021/01/19 04:23:13;;;;;;;;;;;;;;;20.83;46.85;100933.31;2061651;28;3942;-67
2021/01/19 04:24:14;;;;;;;;;;;;;;;20.79;46.96;100927.50;2060329;28;3959;-67
2021/01/19 04:25:14;;;;;;;;;;;;;;;20.82;47.03;100928.81;2061461;28;3926;-67
2021/01/19 04:26:14;;;;;;;;;;;;;;;20.80;46.91;100934.00;2061395;28;4389;-67
2021/01/19 04:27:14;;;;;;;;;;;;;;;20.81;47.01;100925.13;2062290;28;3947;-68
2021/01/19 04:28:14;;;;;;;;;;;;;;;20.82;46.81;100923.97;2061947;28;3850;-67
2021/01/19 04:29:14;;;;;;;;;;;;;;;20.83;46.79;100924.78;2061620;28;3839;-67
2021/01/19 04:30:14;;;;;;;;;;;;;;;20.82;46.93;100928.81;2061563;28;3863;-67
2021/01/19 04:31:14;;;;;;;;;;;;;;;20.83;46.92;100925.59;2061015;28;4381;-68
2021/01/19 04:32:14;;;;;;;;;;;;;;;20.84;46.87;100923.59;2061540;28;3813;-67
2021/01/19 04:33:14;;;;;;;;;;;;;;;20.84;46.89;100929.28;2061399;28;4018;-67
2021/01/19 04:34:15;;;;;;;;;;;;;;;20.83;46.81;100931.28;2061292;28;3795;-67
2021/01/19 04:35:15;;;;;;;;;;;;;;;20.84;46.66;100927.28;2061510;28;3755;-67
2021/01/19 04:36:15;;;;;;;;;;;;;;;20.83;46.72;100927.63;2060617;28;4024;-67
2021/01/19 04:37:15;;;;;;;;;;;;;;;20.83;46.82;100919.09;2061068;28;4451;-68
2021/01/19 04:38:15;;;;;;;;;;;;;;;20.85;46.61;100916.75;2061661;28;4051;-68
2021/01/19 04:39:15;;;;;;;;;;;;;;;20.84;46.79;100912.22;2060965;28;3784;-67
2021/01/19 04:40:15;;;;;;;;;;;;;;;20.85;46.67;100922.44;2060471;28;3812;-69
2021/01/19 04:41:15;;;;;;;;;;;;;;;20.85;46.64;100920.41;2062060;28;3779;-69
2021/01/19 04:42:15;;;;;;;;;;;;;;;20.86;46.59;100916.38;2061915;28;3803;-69
2021/01/19 04:43:16;;;;;;;;;;;;;;;20.87;46.38;100918.06;2063131;28;3787;-69
2021/01/19 04:44:16;;;;;;;;;;;;;;;20.86;46.57;100915.53;2061158;28;4857;-69
2021/01/19 04:45:16;;;;;;;;;;;;;;;20.87;46.48;100912.38;2060709;28;3952;-71
2021/01/19 04:46:16;;;;;;;;;;;;;;;20.97;46.29;100915.94;2061687;28;3780;-69
2021/01/19 04:47:16;;;;;;;;;;;;;;;20.97;46.35;100907.41;2061824;28;3801;-69
2021/01/19 04:48:16;;;;;;;;;;;;;;;20.96;46.11;100909.44;2062526;28;3946;-69
2021/01/19 04:49:17;;;;;;;;;;;;;;;20.95;46.14;100909.78;2061157;28;4404;-69
2021/01/19 04:50:17;;;;;;;;;;;;;;;20.95;46.33;100904.94;2061363;28;4448;-69
2021/01/19 04:51:17;;;;;;;;;;;;;;;20.93;46.31;100910.13;2062431;28;3975;-69
2021/01/19 04:52:17;;;;;;;;;;;;;;;20.90;46.42;100911.66;2059587;28;3948;-69
2021/01/19 04:53:17;;;;;;;;;;;;;;;20.91;46.26;100916.16;2061164;28;4099;-69
2021/01/19 04:54:17;;;;;;;;;;;;;;;20.89;46.44;100904.28;2062247;28;3784;-69
2021/01/19 04:55:18;;;;;;;;;;;;;;;20.89;46.48;100914.84;2060755;28;3811;-69
2021/01/19 04:56:18;;;;;;;;;;;;;;;20.87;46.49;100915.22;2061233;28;3793;-69
2021/01/19 04:57:18;;;;;;;;;;;;;;;20.87;46.55;100917.22;2061861;28;4000;-69
2021/01/19 04:58:18;;;;;;;;;;;;;;;20.86;46.43;100909.88;2060587;28;3804;-69
2021/01/19 04:59:18;;;;;;;;;;;;;;;20.87;46.59;100917.22;2061378;28;3915;-69
2021/01/19 05:00:18;;;;;;;;;;;;;;;20.88;46.41;100914.03;2060547;28;4555;-69
2021/01/19 05:01:19;;;;;;;;;;;;;;;20.88;46.56;100918.88;2060725;28;4424;-69
2021/01/19 05:02:19;;;;;;;;;;;;;;;20.89;46.46;100924.19;2061234;28;3856;-69
2021/01/19 05:03:23;;;;;;;;;;;;;;;20.88;46.52;100927.41;2061344;28;4014;-68
2021/01/19 05:04:23;;;;;;;;;;;;;;;20.89;46.47;100924.19;2062546;28;3932;-68
2021/01/19 05:05:24;;;;;;;;;;;;;;;20.89;46.51;100924.19;2060802;28;3771;-69
2021/01/19 05:06:27;;;;;;;;;;;;;;;20.86;46.46;100927.75;2052219;28;3779;-69
2021/01/19 05:07:27;;;;;;;;;;;;;;;20.87;46.43;100917.22;2053070;28;3933;-69
2021/01/19 05:08:27;;;;;;;;;;;;;;;20.87;46.29;100909.53;2060277;28;3883;-69
2021/01/19 05:09:27;;;;;;;;;;;;;;;20.87;46.38;100909.53;2060777;28;4080;-69
2021/01/19 05:10:27;;;;;;;;;;;;;;;20.87;46.47;100905.84;2061084;28;3928;-69
2021/01/19 05:11:27;;;;;;;;;;;;;;;20.87;46.40;100903.84;2060981;28;3954;-69
2021/01/19 05:12:28;;;;;;;;;;;;;;;20.88;46.27;100898.97;2061237;28;3950;-69
2021/01/19 05:13:28;;;;;;;;;;;;;;;20.91;46.38;100898.28;2060258;28;3962;-69